Data for 09/28/2007

Time Sea-Level Adjusted Pressure Absolute Pressure Temperature Relative Humidity Dew Point   
(mb) (inHg) (mb) (inHg) (C) (F) (%) (C) (F)
00:05 1013 29.91 842 24.86 17.6 63.6 19 -6.1 21.1
00:10 1013 29.91 842 24.86 17.3 63.2 19 -6.3 20.7
00:15 1013 29.91 842 24.86 17.5 63.5 19 -6.2 20.8
00:20 1013 29.91 842 24.86 17.3 63.1 20 -5.8 21.5
00:25 1012 29.88 842 24.86 17.2 62.9 20 -6.2 20.9
00:30 1012 29.88 842 24.86 17.2 62.9 20 -5.9 21.4
00:35 1012 29.88 842 24.86 17.3 63.1 20 -5.9 21.4
00:40 1012 29.88 842 24.86 17.5 63.5 20 -5.8 21.5
00:45 1012 29.88 841 24.83 17.6 63.6 20 -5.6 21.9
00:50 1012 29.88 841 24.83 17.4 63.3 20 -5.7 21.7
00:55 1012 29.88 841 24.83 17.4 63.3 20 -6 21.3
01:00 1012 29.88 841 24.83 17.5 63.4 20 -5.7 21.8
01:05 1012 29.88 841 24.83 17.4 63.3 20 -5.5 22.1
01:10 1012 29.88 841 24.83 17.3 63.2 20 -5.5 22
01:15 1012 29.88 841 24.83 17.2 63 21 -5.2 22.7
01:20 1012 29.88 841 24.83 17.2 62.9 20 -5.8 21.6
01:25 1012 29.88 841 24.83 17.2 63 21 -5.2 22.6
01:30 1012 29.88 841 24.83 16.9 62.4 21 -5.4 22.3
01:35 1012 29.88 842 24.86 16.9 62.5 22 -5.1 22.8
01:40 1012 29.88 842 24.86 16.7 62.1 23 -4.7 23.5
01:45 1012 29.88 841 24.83 16.5 61.6 23 -4.4 24
01:50 1012 29.88 841 24.83 16.1 61 24 -4.1 24.6
01:55 1012 29.88 842 24.86 15.2 59.4 27 -3.5 25.6
02:00 1012 29.88 841 24.83 14 57.2 29 -3.5 25.7
02:05 1012 29.88 841 24.83 13.5 56.3 29 -4.1 24.6
02:10 1012 29.88 841 24.83 13.3 56 30 -4 24.8
02:15 1012 29.88 841 24.83 13 55.4 30 -4 24.8
02:20 1012 29.88 841 24.83 13 55.3 30 -4.3 24.3
02:25 1012 29.88 841 24.83 13.3 55.9 28 -4.7 23.5
02:30 1012 29.88 841 24.83 13.6 56.5 29 -3.9 24.9
02:35 1012 29.88 841 24.83 13.2 55.8 29 -4.4 24
02:40 1012 29.88 841 24.83 13.5 56.3 28 -4.5 23.9
02:45 1012 29.88 841 24.83 13.6 56.4 28 -4.6 23.7
02:50 1012 29.88 841 24.83 13.7 56.6 27 -5 23
02:55 1012 29.88 841 24.83 14.1 57.3 26 -5 23.1
03:00 1012 29.88 841 24.83 14.4 57.9 27 -4.4 24.2
03:05 1012 29.88 841 24.83 14.1 57.3 27 -4.7 23.5
03:10 1012 29.88 841 24.83 13.9 57.1 27 -4.7 23.6
03:15 1012 29.88 841 24.83 14.2 57.6 25 -5.7 21.8
03:20 1012 29.88 841 24.83 15.1 59.2 25 -4.6 23.8
03:25 1012 29.88 841 24.83 15.2 59.3 26 -4.4 24.1
03:30 1012 29.88 841 24.83 14.9 58.9 26 -4.2 24.4
03:35 1012 29.88 841 24.83 14.5 58.1 28 -3.7 25.3
03:40 1012 29.88 841 24.83 14 57.2 29 -3.8 25.2
03:45 1012 29.88 841 24.83 13.9 57 27 -4.5 23.9
03:50 1011 29.85 841 24.83 14.1 57.3 29 -3.4 25.8
03:55 1011 29.85 841 24.83 13.6 56.4 28 -4.3 24.2
04:00 1011 29.85 841 24.83 13.7 56.7 31 -3 26.7
04:05 1011 29.85 840 24.81 13.2 55.8 28 -4.7 23.6
04:10 1011 29.85 840 24.81 13.8 56.8 28 -4.4 24.1
04:15 1011 29.85 840 24.81 13.8 56.9 28 -4.3 24.2
04:20 1011 29.85 840 24.81 14.1 57.3 26 -5.1 22.8
04:25 1011 29.85 840 24.81 14.6 58.2 26 -4.5 23.9
04:30 1011 29.85 840 24.81 14.2 57.5 28 -3.8 25.1
04:35 1011 29.85 840 24.81 13.7 56.6 28 -4.2 24.4
04:40 1011 29.85 840 24.81 13.5 56.4 29 -4 24.8
04:45 1011 29.85 840 24.81 13.3 55.9 29 -4.2 24.4
04:50 1011 29.85 840 24.81 12.8 55 31 -4 24.8
04:55 1011 29.85 840 24.81 12.6 54.7 31 -3.9 25
05:00 1011 29.85 840 24.81 12.3 54.1 32 -4 24.7
05:05 1011 29.85 840 24.81 12.1 53.9 31 -4.5 23.9
05:10 1011 29.85 840 24.81 12.4 54.3 30 -4.5 24
05:15 1011 29.85 840 24.81 12.8 55 30 -4.4 24
05:20 1011 29.85 840 24.81 12.8 55 30 -4.3 24.2
05:25 1011 29.85 840 24.81 12.7 54.9 30 -4.4 24
05:30 1011 29.85 840 24.81 12.6 54.6 32 -3.7 25.3
05:35 1011 29.85 840 24.81 12.2 54 32 -4 24.8
05:40 1011 29.85 840 24.81 12.2 53.9 31 -4.4 24.1
05:45 1011 29.85 840 24.81 12.4 54.3 31 -4.2 24.4
05:50 1011 29.85 840 24.81 12.4 54.3 31 -4.2 24.5
05:55 1011 29.85 840 24.81 12.5 54.5 31 -3.9 24.9
06:00 1011 29.85 840 24.81 12.7 54.9 30 -4.5 23.9
06:05 1010 29.83 840 24.81 12.9 55.3 30 -4.1 24.5
06:10 1010 29.83 840 24.81 12.7 54.9 31 -4 24.9
06:15 1010 29.83 840 24.81 12.4 54.2 32 -4 24.8
06:20 1010 29.83 840 24.81 12.5 54.5 31 -4.2 24.5
06:25 1010 29.83 839 24.78 12.3 54.1 33 -3.6 25.5
06:30 1010 29.83 839 24.78 12 53.5 32 -4.1 24.6
06:35 1010 29.83 839 24.78 12.1 53.9 31 -4.5 23.8
06:40 1010 29.83 839 24.78 12.3 54.2 31 -4.1 24.7
06:45 1010 29.83 839 24.78 12.1 53.8 32 -4.1 24.6
06:50 1010 29.83 839 24.78 12.1 53.7 31 -4.4 24.2
06:55 1010 29.83 839 24.78 12.2 54 31 -4.2 24.5
07:00 1010 29.83 839 24.78 12.1 53.8 31 -4.3 24.3
07:05 1010 29.83 839 24.78 12.3 54.2 30 -4.6 23.7
07:10 1010 29.83 839 24.78 12.5 54.4 30 -4.6 23.7
07:15 1010 29.83 839 24.78 12.5 54.6 30 -4.7 23.6
07:20 1010 29.83 839 24.78 12.5 54.5 30 -4.3 24.2
07:25 1010 29.83 839 24.78 12.3 54.2 31 -4.3 24.2
07:30 1010 29.83 839 24.78 12.2 54 31 -4.5 24
07:35 1010 29.83 839 24.78 12.2 54 30 -4.8 23.3
07:40 1010 29.83 839 24.78 12.4 54.4 30 -4.7 23.5
07:45 1010 29.83 839 24.78 12.6 54.7 28 -5.5 22
07:50 1010 29.83 839 24.78 13.3 55.9 28 -4.9 23.1
07:55 1010 29.83 839 24.78 13.4 56.2 28 -4.6 23.7
08:00 1009 29.8 839 24.78 13.3 56 28 -4.9 23.2
08:05 1009 29.8 839 24.78 13.2 55.8 29 -4.3 24.2
08:10 1009 29.8 839 24.78 13 55.4 29 -4.5 24
08:15 1009 29.8 839 24.78 13.3 56 28 -4.9 23.1
08:20 1009 29.8 839 24.78 13.9 57 27 -4.9 23.1
08:25 1009 29.8 839 24.78 13.9 57.1 27 -4.8 23.4
08:30 1009 29.8 839 24.78 13.8 56.8 27 -4.6 23.7
08:35 1009 29.8 839 24.78 13.7 56.6 26 -5.4 22.3
08:40 1009 29.8 839 24.78 14.1 57.3 27 -4.7 23.6
08:45 1009 29.8 838 24.75 14.1 57.3 27 -4.5 23.9
08:50 1009 29.8 838 24.75 13.9 57 27 -4.7 23.6
08:55 1009 29.8 838 24.75 13.9 57.1 27 -4.7 23.5
09:00 1009 29.8 838 24.75 14.2 57.5 26 -4.9 23.3
09:05 1009 29.8 838 24.75 14.6 58.4 26 -4.4 24.1
09:10 1009 29.8 838 24.75 14.9 58.9 25 -4.8 23.4
09:15 1009 29.8 838 24.75 15 59.1 25 -4.6 23.8
09:20 1009 29.8 838 24.75 15.2 59.4 24 -5.3 22.4
09:25 1009 29.8 838 24.75 15.4 59.7 25 -4.4 24
09:30 1009 29.8 838 24.75 15.6 60.1 25 -4.3 24.2
09:35 1009 29.8 838 24.75 15.8 60.4 25 -4.2 24.5
09:40 1009 29.8 838 24.75 16.2 61.1 23 -5.2 22.7
09:45 1009 29.8 838 24.75 16.9 62.3 24 -3.8 25.1
09:50 1009 29.8 838 24.75 17.3 63.2 23 -3.6 25.5
09:55 1009 29.8 838 24.75 17.4 63.2 23 -3.6 25.5
10:00 1009 29.8 838 24.75 17.3 63.1 23 -4.1 24.5
10:05 1009 29.8 838 24.75 17.3 63.2 22 -4.3 24.3
10:10 1009 29.8 838 24.75 17.4 63.4 22 -4.6 23.8
10:15 1009 29.8 838 24.75 17.4 63.4 26 -2.3 27.9
10:20 1009 29.8 838 24.75 17.4 63.3 25 -2.8 27
10:25 1009 29.8 838 24.75 17.6 63.7 27 -1.6 29.2
10:30 1009 29.8 838 24.75 17.7 63.9 25 -2.7 27.2
10:35 1009 29.8 838 24.75 17.9 64.3 25 -2.3 27.9
10:40 1009 29.8 838 24.75 18.2 64.8 25 -1.9 28.6
10:45 1009 29.8 838 24.75 18.3 64.9 23 -3.2 26.3
10:50 1009 29.8 838 24.75 19.2 66.6 18 -5.2 22.6
10:55 1008 29.77 838 24.75 20.1 68.2 16 -6.7 19.9
11:00 1008 29.77 838 24.75 20.2 68.4 16 -6 21.2
11:05 1008 29.77 838 24.75 20.4 68.8 17 -5.3 22.4
11:10 1008 29.77 838 24.75 20.7 69.2 15 -6.4 20.4
11:15 1008 29.77 837 24.72 20.7 69.3 15 -6.7 20
11:20 1008 29.77 837 24.72 20.7 69.2 15 -6.3 20.6
11:25 1008 29.77 837 24.72 20.9 69.6 16 -5.8 21.6
11:30 1008 29.77 837 24.72 20.9 69.5 15 -6.6 20.2
11:35 1008 29.77 837 24.72 20.8 69.4 18 -4.1 24.7
11:40 1008 29.77 837 24.72 20.8 69.5 15 -6.5 20.4
11:45 1008 29.77 837 24.72 20.8 69.5 16 -5.7 21.7
11:50 1008 29.77 837 24.72 21.3 70.3 16 -5 22.9
11:55 1008 29.77 837 24.72 21.6 70.9 17 -4.1 24.7
12:00 1008 29.77 837 24.72 21.8 71.3 15 -5.9 21.4
12:05 1008 29.77 837 24.72 21.3 70.4 15 -5.9 21.4
12:10 1008 29.77 837 24.72 21.2 70.1 16 -5.1 22.8
12:15 1007 29.74 837 24.72 21 69.8 17 -4.8 23.3
12:20 1007 29.74 837 24.72 21.2 70.2 17 -5 23.1
12:25 1007 29.74 837 24.72 21.3 70.3 17 -4.9 23.1
12:30 1007 29.74 837 24.72 21.2 70.2 16 -5.4 22.3
12:35 1007 29.74 836 24.69 21.3 70.3 17 -4.5 23.8
12:40 1007 29.74 836 24.69 21.5 70.7 15 -5.8 21.5
12:45 1007 29.74 836 24.69 21.5 70.7 16 -5.5 22.1
12:50 1007 29.74 836 24.69 21.8 71.2 15 -5.5 22.1
12:55 1007 29.74 836 24.69 21.6 71 15 -5.6 21.9
13:00 1007 29.74 836 24.69 21.8 71.3 16 -4.8 23.4
13:05 1007 29.74 836 24.69 22.1 71.7 15 -5.3 22.5
13:10 1007 29.74 836 24.69 22 71.7 15 -5.4 22.2
13:15 1007 29.74 836 24.69 22.2 71.9 15 -5.2 22.6
13:20 1007 29.74 836 24.69 22.5 72.4 17 -3.4 25.9
13:25 1007 29.74 836 24.69 22.9 73.1 18 -2.2 28
13:30 1007 29.74 836 24.69 22.9 73.1 18 -2.2 28.1
13:35 1007 29.74 836 24.69 23.1 73.5 17 -3 26.6
13:40 1006 29.71 836 24.69 23 73.5 18 -2.5 27.5
13:45 1006 29.71 836 24.69 22.4 72.4 17 -3.4 26
13:50 1006 29.71 836 24.69 22.3 72.1 17 -4 24.9
13:55 1006 29.71 836 24.69 22.5 72.5 15 -5.1 22.8
14:00 1006 29.71 835 24.66 22.9 73.2 15 -4.7 23.5
14:05 1006 29.71 835 24.66 23.1 73.5 15 -4.5 23.9
14:10 1006 29.71 835 24.66 22.8 73.1 15 -5 22.9
14:15 1006 29.71 835 24.66 22.8 73 16 -4.3 24.2
14:20 1006 29.71 835 24.66 22.3 72.1 15 -5.4 22.3
14:25 1006 29.71 835 24.66 21.6 70.9 17 -4.5 23.8
14:30 1006 29.71 835 24.66 21.4 70.4 17 -4.7 23.6
14:35 1006 29.71 835 24.66 21.4 70.5 17 -4.4 24.1
14:40 1006 29.71 835 24.66 21.4 70.5 16 -5 22.9
14:45 1006 29.71 835 24.66 21.4 70.4 16 -4.9 23.1
14:50 1006 29.71 835 24.66 21.3 70.4 17 -4.2 24.4
14:55 1005 29.68 835 24.66 21.4 70.6 17 -4.5 23.9
15:00 1005 29.68 835 24.66 21.4 70.5 17 -4.5 24
15:05 1005 29.68 835 24.66 21.4 70.5 17 -4.4 24
15:10 1005 29.68 835 24.66 21.3 70.3 17 -4.7 23.5
15:15 1005 29.68 834 24.63 21.3 70.3 17 -4.7 23.5
15:20 1005 29.68 834 24.63 21.3 70.4 17 -4.9 23.2
15:25 1005 29.68 834 24.63 21.4 70.5 16 -5.5 22.2
15:30 1005 29.68 834 24.63 21.4 70.6 16 -5.2 22.6
15:35 1005 29.68 834 24.63 21.5 70.6 16 -5.2 22.7
15:40 1005 29.68 834 24.63 21.3 70.3 17 -4.5 24
15:45 1005 29.68 834 24.63 21.2 70.1 18 -4.2 24.4
15:50 1005 29.68 834 24.63 21.1 70.1 18 -4.3 24.2
15:55 1005 29.68 834 24.63 21.2 70.2 17 -4.7 23.5
16:00 1005 29.68 834 24.63 21.6 71 16 -4.9 23.2
16:05 1005 29.68 834 24.63 22.1 71.8 16 -5 23
16:10 1005 29.68 834 24.63 22 71.6 16 -4.4 24.1
16:15 1005 29.68 834 24.63 22 71.6 17 -3.8 25.1
16:20 1005 29.68 834 24.63 21.9 71.4 16 -5 23.1
16:25 1005 29.68 834 24.63 21.8 71.2 16 -5.2 22.7
16:30 1005 29.68 834 24.63 21.9 71.5 15 -5.5 22.2
16:35 1005 29.68 834 24.63 21.9 71.4 15 -6 21.3
16:40 1005 29.68 834 24.63 21.9 71.4 15 -6 21.2
16:45 1005 29.68 834 24.63 21.8 71.2 15 -5.8 21.5
16:50 1005 29.68 834 24.63 21.5 70.7 17 -4.1 24.6
16:55 1005 29.68 834 24.63 21.1 70 18 -4.3 24.3
17:00 1005 29.68 834 24.63 20.8 69.4 18 -4.5 24
17:05 1004 29.65 834 24.63 20.5 69 17 -5.6 21.9
17:10 1004 29.65 834 24.63 20.6 69.1 16 -6 21.2
17:15 1004 29.65 834 24.63 20.9 69.7 16 -5.5 22.1
17:20 1004 29.65 834 24.63 20.8 69.5 17 -5.1 22.8
17:25 1004 29.65 834 24.63 20.6 69 17 -5.4 22.2
17:30 1004 29.65 833 24.6 20.6 69.1 17 -4.9 23.2
17:35 1004 29.65 833 24.6 20.5 68.8 17 -5.1 22.9
17:40 1004 29.65 833 24.6 20.5 68.9 18 -4.9 23.3
17:45 1004 29.65 833 24.6 20.5 69 18 -4.5 24
17:50 1004 29.65 833 24.6 20.4 68.6 19 -3.7 25.3
17:55 1004 29.65 833 24.6 20 68 20 -3.3 26
18:00 1004 29.65 833 24.6 19.9 67.8 21 -3.1 26.4
18:05 1004 29.65 833 24.6 19.9 67.7 20 -3.7 25.4
18:10 1004 29.65 833 24.6 20 67.9 19 -4.3 24.2
18:15 1004 29.65 833 24.6 20 68.1 18 -4.5 23.8
18:20 1004 29.65 833 24.6 19.9 67.8 19 -4.1 24.6
18:25 1004 29.65 833 24.6 19.9 67.9 18 -4.8 23.4
18:30 1004 29.65 833 24.6 20.1 68.2 19 -3.9 25
18:35 1004 29.65 833 24.6 20 68 19 -4.1 24.7
18:40 1004 29.65 833 24.6 19.7 67.4 21 -3.3 26
18:45 1004 29.65 833 24.6 19.5 67 22 -3 26.7
18:50 1004 29.65 833 24.6 19.1 66.5 22 -3.2 26.3
18:55 1004 29.65 833 24.6 19.1 66.3 23 -2.5 27.5
19:00 1004 29.65 833 24.6 19.1 66.4 21 -3.4 25.8
19:05 1004 29.65 833 24.6 18.9 66.1 21 -3.4 25.8
19:10 1004 29.65 833 24.6 18.9 66 21 -3.6 25.6
19:15 1004 29.65 833 24.6 18.9 66 21 -3.9 25
19:20 1004 29.65 834 24.63 18.7 65.7 26 -0.8 30.6
19:25 1004 29.65 834 24.63 17.4 63.3 30 -0.3 31.5
19:30 1004 29.65 834 24.63 16.9 62.4 30 -0.6 31
19:35 1004 29.65 834 24.63 16.8 62.2 31 -0.1 31.8
19:40 1004 29.65 833 24.6 16.7 62.1 30 -0.8 30.6
19:45 1004 29.65 833 24.6 16.7 62 31 -0.6 31
19:50 1004 29.65 834 24.63 16.6 61.9 31 -0.7 30.8
19:55 1004 29.65 833 24.6 16.5 61.7 31 -0.5 31
20:00 1004 29.65 833 24.6 16.4 61.4 31 -0.5 31.1
20:05 1004 29.65 833 24.6 16.2 61.2 32 -0.6 31
20:10 1004 29.65 833 24.6 16.1 61 32 -0.7 30.8
20:15 1004 29.65 833 24.6 15.9 60.7 33 -0.3 31.5
20:20 1004 29.65 833 24.6 15.9 60.5 33 -0.3 31.4
20:25 1004 29.65 833 24.6 15.7 60.3 32 -0.8 30.5
20:30 1004 29.65 833 24.6 15.6 60 33 -0.5 31.1
20:35 1004 29.65 833 24.6 15.3 59.6 33 -0.8 30.6
20:40 1004 29.65 833 24.6 15.2 59.3 34 -0.6 30.9
20:45 1004 29.65 833 24.6 14.9 58.9 35 -0.3 31.5
20:50 1004 29.65 833 24.6 14.6 58.3 40 1.3 34.4
20:55 1004 29.65 833 24.6 14.3 57.8 38 0.3 32.5
21:00 1004 29.65 833 24.6 14.1 57.4 36 -0.5 31.1
21:05 1004 29.65 833 24.6 14.5 58 36 -0.3 31.5
21:10 1004 29.65 833 24.6 14.6 58.3 37 0 32
21:15 1004 29.65 833 24.6 14.2 57.6 39 0.6 33
21:20 1004 29.65 833 24.6 13.8 56.8 47 2.7 36.9
21:25 1004 29.65 833 24.6 13.7 56.7 40 0.5 32.9
21:30 1004 29.65 833 24.6 13.5 56.2 40 0.3 32.6
21:35 1004 29.65 833 24.6 13.5 56.3 39 -0.2 31.7
21:40 1004 29.65 833 24.6 13.6 56.4 41 0.5 32.9
21:45 1004 29.65 833 24.6 13.8 56.9 35 -1.1 30
21:50 1004 29.65 833 24.6 14.1 57.5 35 -1.1 30
21:55 1004 29.65 833 24.6 14.6 58.3 36 -0.3 31.5
22:00 1004 29.65 833 24.6 14.7 58.4 34 -1 30.2
22:05 1004 29.65 833 24.6 14.8 58.6 35 -0.4 31.3
22:10 1004 29.65 834 24.63 14.7 58.4 36 -0.3 31.5
22:15 1004 29.65 834 24.63 14.7 58.4 36 -0.1 31.7
22:20 1004 29.65 834 24.63 14.6 58.2 37 0.1 32.2
22:25 1004 29.65 834 24.63 14.4 58 36 -0.4 31.3
22:30 1004 29.65 834 24.63 14.6 58.3 33 -1.3 29.6
22:35 1004 29.65 833 24.6 15 58.9 32 -1.3 29.6
22:40 1004 29.65 834 24.63 15.1 59.3 32 -1.2 29.8
22:45 1004 29.65 834 24.63 15.2 59.4 33 -1.1 30.1
22:50 1005 29.68 834 24.63 15.1 59.2 34 -0.7 30.7
22:55 1005 29.68 834 24.63 14.7 58.5 35 -0.3 31.4
23:00 1005 29.68 834 24.63 14.9 58.7 34 -0.9 30.3
23:05 1005 29.68 834 24.63 15 59.1 37 0.4 32.7
23:10 1005 29.68 834 24.63 14.7 58.4 39 1 33.8
23:15 1005 29.68 834 24.63 14.3 57.7 40 1 33.8
23:20 1005 29.68 834 24.63 13.9 57 44 1.9 35.4
23:25 1005 29.68 834 24.63 13.1 55.6 46 1.8 35.2
23:30 1005 29.68 835 24.66 13.1 55.5 45 1.5 34.8
23:35 1005 29.68 834 24.63 13.4 56 45 1.7 35
23:40 1005 29.68 834 24.63 13.6 56.4 44 1.7 35.1
23:45 1005 29.68 834 24.63 13.5 56.3 46 2.1 35.8
23:50 1005 29.68 834 24.63 13.5 56.3 45 2 35.6
23:55 1005 29.68 835 24.66 13.5 56.2 46 2.2 35.9
24:00 1005 29.68 835 24.66 13.4 56.2 47 2.5 36.4